createdAt,value
2023-05-10T00:02:24.789Z,23.13
2023-05-10T00:05:09.903Z,20.73
2023-05-10T00:07:54.706Z,22.63
2023-05-10T00:10:40.108Z,19.65
2023-05-10T00:13:25.244Z,20.92
2023-05-10T00:16:10.838Z,22.42
2023-05-10T00:18:56.177Z,22.17
2023-05-10T00:21:41.540Z,21.25
2023-05-10T00:24:26.904Z,20.23
2023-05-10T00:27:11.846Z,21.20
2023-05-10T00:29:56.707Z,19.02
2023-05-10T00:32:41.860Z,18.27
2023-05-10T00:35:27.137Z,17.98
2023-05-10T00:38:11.965Z,19.38
2023-05-10T00:40:56.691Z,19.75
2023-05-10T00:43:42.289Z,19.13
2023-05-10T00:46:27.714Z,19.52
2023-05-10T00:49:13.310Z,20.67
2023-05-10T00:51:58.999Z,18.77
2023-05-10T00:54:44.024Z,21.70
2023-05-10T00:57:29.359Z,19.08
2023-05-10T01:00:15.764Z,20.30
2023-05-10T01:03:02.198Z,19.70
2023-05-10T01:05:47.449Z,20.92
2023-05-10T01:08:33.247Z,19.20
2023-05-10T01:11:18.341Z,19.95
2023-05-10T01:14:04.379Z,23.27
2023-05-10T01:16:50.748Z,22.60
2023-05-10T01:19:36.259Z,20.55
2023-05-10T01:22:42.935Z,21.92
2023-05-10T01:25:27.850Z,18.95
2023-05-10T01:28:50.536Z,22.00
2023-05-10T01:32:17.113Z,18.05
2023-05-10T01:35:05.440Z,17.45
2023-05-10T01:38:00.467Z,14.90
2023-05-10T01:41:04.004Z,14.95
2023-05-10T01:44:02.508Z,16.60
2023-05-10T01:46:54.133Z,16.88
2023-05-10T01:49:46.535Z,15.98
2023-05-10T01:52:36.464Z,13.65
2023-05-10T01:55:25.129Z,15.63
2023-05-10T01:58:14.158Z,16.40
2023-05-10T02:01:02.321Z,17.10
2023-05-10T02:03:50.833Z,17.25
2023-05-10T02:06:37.551Z,16.70
2023-05-10T02:09:24.845Z,15.30
2023-05-10T02:12:10.409Z,16.77
2023-05-10T02:14:56.966Z,15.85
2023-05-10T02:17:43.423Z,15.38
2023-05-10T02:20:29.129Z,14.85
2023-05-10T02:23:16.324Z,16.65
2023-05-10T02:26:03.236Z,17.20
2023-05-10T02:28:49.576Z,17.08
2023-05-10T02:31:36.182Z,17.15
2023-05-10T02:34:27.847Z,17.70
2023-05-10T02:37:15.455Z,17.33
2023-05-10T02:40:02.200Z,19.05
2023-05-10T02:42:49.929Z,19.05
2023-05-10T02:45:37.320Z,20.02
2023-05-10T02:48:22.595Z,20.48
2023-05-10T02:51:09.250Z,20.52
2023-05-10T02:53:56.029Z,19.92
2023-05-10T02:56:48.005Z,21.70
2023-05-10T02:59:33.440Z,20.80
2023-05-10T03:02:19.202Z,22.98
2023-05-10T03:05:04.641Z,23.15
2023-05-10T03:07:50.721Z,24.83
2023-05-10T03:11:11.776Z,23.50
2023-05-10T03:14:08.418Z,21.92
2023-05-10T03:17:01.363Z,22.23
2023-05-10T03:20:04.910Z,20.13
2023-05-10T03:22:56.806Z,18.95
2023-05-10T03:25:43.174Z,20.35
2023-05-10T03:28:28.870Z,16.83
2023-05-10T03:31:14.737Z,15.48
2023-05-10T03:33:59.826Z,13.05
2023-05-10T03:36:45.189Z,13.93
2023-05-10T03:39:30.537Z,9.70
2023-05-10T03:42:15.915Z,8.27
2023-05-10T03:45:01.395Z,7.07
2023-05-10T03:47:46.557Z,5.97
2023-05-10T03:50:32.083Z,4.28
2023-05-10T03:53:17.740Z,4.03
2023-05-10T03:56:03.187Z,3.90
2023-05-10T03:58:48.394Z,3.67
2023-05-10T04:01:35.002Z,3.80
2023-05-10T04:04:20.262Z,3.72
2023-05-10T04:07:05.661Z,4.00
2023-05-10T04:09:50.978Z,3.72
2023-05-10T04:12:36.496Z,4.40
2023-05-10T04:15:21.762Z,4.38
2023-05-10T04:18:08.651Z,4.78
2023-05-10T04:20:54.058Z,4.75
2023-05-10T04:23:39.419Z,5.30
2023-05-10T04:26:24.550Z,5.63
2023-05-10T04:29:09.686Z,5.47
2023-05-10T04:31:55.701Z,5.75
2023-05-10T04:34:40.513Z,5.43
2023-05-10T04:37:25.992Z,5.43
2023-05-10T04:40:11.458Z,6.25
2023-05-10T04:42:56.624Z,6.47
2023-05-10T04:45:42.036Z,6.43
2023-05-10T04:48:26.798Z,6.05
2023-05-10T04:51:12.211Z,6.00
2023-05-10T04:54:06.161Z,5.45
2023-05-10T04:56:51.739Z,5.68
2023-05-10T04:59:37.370Z,6.18
2023-05-10T05:02:22.507Z,5.93
2023-05-10T05:05:08.454Z,5.50
2023-05-10T05:07:53.399Z,5.63
2023-05-10T05:10:38.727Z,6.40
2023-05-10T05:13:24.109Z,5.30
2023-05-10T05:16:09.793Z,5.03
2023-05-10T05:18:54.935Z,5.03
2023-05-10T05:21:40.772Z,5.00
2023-05-10T05:24:25.843Z,5.00
2023-05-10T05:27:10.901Z,4.55
2023-05-10T05:29:57.160Z,5.53
2023-05-10T05:32:42.566Z,5.22
2023-05-10T05:35:27.875Z,12.65
2023-05-10T05:38:13.271Z,21.35
2023-05-10T05:40:58.733Z,6.10
2023-05-10T05:43:44.078Z,5.57
2023-05-10T05:46:29.352Z,6.03
2023-05-10T05:49:14.234Z,5.70
2023-05-10T05:52:00.863Z,5.82
2023-05-10T05:54:46.346Z,5.80
2023-05-10T05:57:31.682Z,6.00
2023-05-10T06:00:17.214Z,5.35
2023-05-10T06:03:02.265Z,5.85
2023-05-10T06:05:47.774Z,5.80
2023-05-10T06:08:32.950Z,5.57
2023-05-10T06:11:18.300Z,5.32
2023-05-10T06:14:05.044Z,5.47
2023-05-10T06:16:50.783Z,5.70
2023-05-10T06:19:35.868Z,6.30
2023-05-10T06:22:21.458Z,5.93
2023-05-10T06:25:07.171Z,6.18
2023-05-10T06:27:53.893Z,5.88
2023-05-10T06:30:39.077Z,5.90
2023-05-10T06:33:24.321Z,6.45
2023-05-10T06:36:09.271Z,7.05
2023-05-10T06:38:54.567Z,7.90
2023-05-10T06:41:39.944Z,8.25
2023-05-10T06:44:25.483Z,8.55
2023-05-10T06:47:10.835Z,8.43
2023-05-10T06:49:56.432Z,9.63
2023-05-10T06:52:41.774Z,11.45
2023-05-10T06:55:27.512Z,11.15
2023-05-10T06:58:12.910Z,13.15
2023-05-10T07:01:03.559Z,14.88
2023-05-10T07:03:48.601Z,17.20
2023-05-10T07:06:34.131Z,18.23
2023-05-10T07:09:19.465Z,18.10
2023-05-10T07:12:05.107Z,19.42
2023-05-10T07:14:50.303Z,19.60
2023-05-10T07:17:35.610Z,21.48
2023-05-10T07:20:20.962Z,23.85
2023-05-10T07:23:06.271Z,19.40
2023-05-10T07:25:52.331Z,19.63
2023-05-10T07:28:37.482Z,19.10
2023-05-10T07:31:23.077Z,18.67
2023-05-10T07:34:08.515Z,19.52
2023-05-10T07:36:54.076Z,17.85
2023-05-10T07:39:39.356Z,19.60
2023-05-10T07:42:24.859Z,20.63
2023-05-10T07:45:10.544Z,20.85
2023-05-10T07:47:55.623Z,19.83
2023-05-10T07:50:41.013Z,19.48
2023-05-10T07:53:27.468Z,21.38
2023-05-10T07:56:27.368Z,20.83
2023-05-10T07:59:16.583Z,22.80
2023-05-10T08:02:02.032Z,21.98
2023-05-10T08:04:47.339Z,21.88
2023-05-10T08:07:33.369Z,23.38
2023-05-10T08:10:18.396Z,21.85
2023-05-10T08:13:03.930Z,23.77
2023-05-10T08:15:49.251Z,21.05
2023-05-10T08:18:34.670Z,25.23
2023-05-10T08:21:20.099Z,26.38
2023-05-10T08:24:05.832Z,27.25
2023-05-10T08:26:51.112Z,28.95
2023-05-10T08:29:48.844Z,25.25
2023-05-10T08:32:34.577Z,23.92
2023-05-10T08:35:19.861Z,26.85
2023-05-10T08:38:05.160Z,29.35
2023-05-10T08:40:50.603Z,28.98
2023-05-10T08:43:36.877Z,30.27
2023-05-10T08:46:23.626Z,31.63
2023-05-10T08:49:11.987Z,30.65
2023-05-10T08:51:58.552Z,31.23
2023-05-10T08:54:43.728Z,32.05
2023-05-10T08:57:28.950Z,31.70
2023-05-10T09:00:14.694Z,34.97
2023-05-10T09:03:00.643Z,30.63
2023-05-10T09:05:46.383Z,31.80
2023-05-10T09:08:32.066Z,33.50
2023-05-10T09:11:17.318Z,30.48
2023-05-10T09:14:02.855Z,31.75
2023-05-10T09:16:48.347Z,32.50
2023-05-10T09:19:33.264Z,32.95
2023-05-10T09:22:18.757Z,30.17
2023-05-10T09:25:15.484Z,30.42
2023-05-10T09:28:01.128Z,29.90
2023-05-10T09:30:54.390Z,29.05
2023-05-10T09:33:46.666Z,27.95
2023-05-10T09:36:32.174Z,28.35
2023-05-10T09:39:18.114Z,24.98
2023-05-10T09:42:08.650Z,24.83
2023-05-10T09:44:54.353Z,23.00
2023-05-10T09:47:39.725Z,21.25
2023-05-10T09:50:26.897Z,18.70
2023-05-10T09:53:16.666Z,17.60
2023-05-10T09:56:01.762Z,16.25
2023-05-10T09:58:47.250Z,17.73
2023-05-10T10:01:34.027Z,18.52
2023-05-10T10:04:20.918Z,19.55
2023-05-10T10:07:06.151Z,18.23
2023-05-10T10:09:52.409Z,19.67
2023-05-10T10:12:37.583Z,17.48
2023-05-10T10:15:23.533Z,18.23
2023-05-10T10:18:13.257Z,20.08
2023-05-10T10:20:59.145Z,20.58
2023-05-10T10:23:44.600Z,19.33
2023-05-10T10:26:32.135Z,20.25
2023-05-10T10:29:27.339Z,18.77
2023-05-10T10:32:25.558Z,19.23
2023-05-10T10:35:10.968Z,18.67
2023-05-10T10:37:56.693Z,18.27
2023-05-10T10:40:42.254Z,16.75
2023-05-10T10:43:28.719Z,17.55
2023-05-10T10:46:16.073Z,16.95
2023-05-10T10:49:11.269Z,15.90
2023-05-10T10:52:15.418Z,12.50
2023-05-10T10:55:01.987Z,12.77
2023-05-10T10:57:52.834Z,13.32
2023-05-10T11:00:38.556Z,14.13
2023-05-10T11:03:23.787Z,14.50
2023-05-10T11:06:08.725Z,14.02
2023-05-10T11:08:53.705Z,15.27
2023-05-10T11:11:55.739Z,15.45
2023-05-10T11:14:41.102Z,15.20
2023-05-10T11:17:28.256Z,14.27
2023-05-10T11:20:16.181Z,15.68
2023-05-10T11:23:15.729Z,16.05
2023-05-10T11:26:01.850Z,17.50
2023-05-10T11:28:49.231Z,16.63
2023-05-10T11:31:34.474Z,15.38
2023-05-10T11:34:27.545Z,15.98
2023-05-10T11:37:12.763Z,17.83
2023-05-10T11:39:57.682Z,18.27
2023-05-10T11:42:42.581Z,18.90
2023-05-10T11:45:27.716Z,21.20
2023-05-10T11:48:12.849Z,21.27
2023-05-10T11:50:58.559Z,21.20
2023-05-10T11:53:43.712Z,19.45
2023-05-10T11:56:29.157Z,22.48
2023-05-10T11:59:15.364Z,20.80
2023-05-10T12:02:00.490Z,21.60
2023-05-10T12:04:46.049Z,21.85
2023-05-10T12:07:31.119Z,21.17
2023-05-10T12:10:16.467Z,20.33
2023-05-10T12:13:01.913Z,19.98
2023-05-10T12:15:47.044Z,20.40
2023-05-10T12:18:32.291Z,21.38
2023-05-10T12:21:19.050Z,21.50
2023-05-10T12:24:04.846Z,20.50
2023-05-10T12:26:51.208Z,19.75
2023-05-10T12:29:36.189Z,18.10
2023-05-10T12:32:21.163Z,20.02
2023-05-10T12:35:07.495Z,18.30
2023-05-10T12:37:52.557Z,17.35
2023-05-10T12:40:38.554Z,18.05
2023-05-10T12:43:23.762Z,18.90
2023-05-10T12:46:14.495Z,18.95
2023-05-10T12:49:08.530Z,18.38
2023-05-10T12:51:54.273Z,18.38
2023-05-10T12:54:39.579Z,18.98
2023-05-10T12:57:24.594Z,18.20
2023-05-10T13:00:10.444Z,19.52
2023-05-10T13:02:55.833Z,16.33
2023-05-10T13:05:41.245Z,17.42
2023-05-10T13:08:26.536Z,17.55
2023-05-10T13:11:12.141Z,17.67
2023-05-10T13:13:57.671Z,20.17
2023-05-10T13:16:44.376Z,22.67
2023-05-10T13:19:29.828Z,23.77
2023-05-10T13:22:17.205Z,21.50
2023-05-10T13:25:06.173Z,19.42
2023-05-10T13:27:51.068Z,19.20
2023-05-10T13:30:36.198Z,18.67
2023-05-10T13:33:21.445Z,17.77
2023-05-10T13:36:07.353Z,19.70
2023-05-10T13:38:52.375Z,19.25
2023-05-10T13:41:37.864Z,16.83
2023-05-10T13:44:22.586Z,18.75
2023-05-10T13:47:07.992Z,16.88
2023-05-10T13:49:53.379Z,17.63
2023-05-10T13:52:38.131Z,18.90
2023-05-10T13:55:23.119Z,18.58
2023-05-10T13:58:08.525Z,16.55
2023-05-10T14:00:54.109Z,16.70
2023-05-10T14:03:39.325Z,17.88
2023-05-10T14:06:24.863Z,17.33
2023-05-10T14:09:10.280Z,16.90
2023-05-10T14:11:55.817Z,17.60
2023-05-10T14:14:41.350Z,19.23
2023-05-10T14:17:26.224Z,19.73
2023-05-10T14:20:12.259Z,20.05
2023-05-10T14:22:57.362Z,21.15
2023-05-10T14:25:43.030Z,20.90
2023-05-10T14:28:28.190Z,19.70
2023-05-10T14:31:13.563Z,18.67
2023-05-10T14:33:58.629Z,19.27
2023-05-10T14:36:43.962Z,20.45
2023-05-10T14:39:29.149Z,19.00
2023-05-10T14:42:14.350Z,18.75
2023-05-10T14:44:59.304Z,19.65
2023-05-10T14:47:44.940Z,18.98
2023-05-10T14:50:35.787Z,20.63
2023-05-10T14:53:21.940Z,20.33
2023-05-10T14:56:07.042Z,20.15
2023-05-10T14:58:52.492Z,20.67
2023-05-10T15:01:38.464Z,20.10
2023-05-10T15:04:23.774Z,18.63
2023-05-10T15:07:09.666Z,17.77
2023-05-10T15:09:55.690Z,16.98
2023-05-10T15:12:40.969Z,17.23
2023-05-10T15:15:26.521Z,17.65
2023-05-10T15:18:11.635Z,16.40
2023-05-10T15:20:56.964Z,18.08
2023-05-10T15:23:42.364Z,18.02
2023-05-10T15:26:27.177Z,18.17
2023-05-10T15:29:12.773Z,17.65
2023-05-10T15:31:57.666Z,17.70
2023-05-10T15:34:42.996Z,16.77
2023-05-10T15:37:28.119Z,14.20
2023-05-10T15:40:13.456Z,14.25
2023-05-10T15:42:58.964Z,13.82
2023-05-10T15:45:44.701Z,14.52
2023-05-10T15:48:29.997Z,14.98
2023-05-10T15:51:15.289Z,15.93
2023-05-10T15:54:07.263Z,16.63
2023-05-10T15:56:53.379Z,16.48
2023-05-10T15:59:38.339Z,16.80
2023-05-10T16:02:23.406Z,18.42
2023-05-10T16:05:09.703Z,18.00
2023-05-10T16:07:55.015Z,19.55
2023-05-10T16:10:40.283Z,23.73
2023-05-10T16:13:25.984Z,21.10
2023-05-10T16:16:11.101Z,21.63
2023-05-10T16:18:58.521Z,22.15
2023-05-10T16:21:43.967Z,21.67
2023-05-10T16:24:29.142Z,21.55
2023-05-10T16:27:14.456Z,21.45
2023-05-10T16:29:59.738Z,21.88
2023-05-10T16:32:44.610Z,20.30
2023-05-10T16:35:30.369Z,19.80
2023-05-10T16:38:15.410Z,23.48
2023-05-10T16:41:04.155Z,25.23
2023-05-10T16:43:49.380Z,27.23
2023-05-10T16:46:34.786Z,27.42
2023-05-10T16:49:20.658Z,27.42
2023-05-10T16:52:05.702Z,27.45
2023-05-10T16:54:50.566Z,25.38
2023-05-10T16:57:35.938Z,24.00
2023-05-10T17:00:20.936Z,22.10
2023-05-10T17:03:06.475Z,22.60
2023-05-10T17:05:51.756Z,21.45
2023-05-10T17:08:36.595Z,20.33
2023-05-10T17:11:21.494Z,21.08
2023-05-10T17:14:07.048Z,22.08
2023-05-10T17:16:52.544Z,22.27
2023-05-10T17:19:37.633Z,22.75
2023-05-10T17:22:23.086Z,21.83
2023-05-10T17:25:08.723Z,21.67
2023-05-10T17:27:53.790Z,22.05
2023-05-10T17:30:38.596Z,22.83
2023-05-10T17:33:24.007Z,23.67
2023-05-10T17:36:09.207Z,24.13
2023-05-10T17:38:54.568Z,21.90
2023-05-10T17:41:40.359Z,21.05
2023-05-10T17:44:25.631Z,20.17
2023-05-10T17:47:10.676Z,21.80
2023-05-10T17:49:55.585Z,20.88
2023-05-10T17:52:41.056Z,21.73
2023-05-10T17:55:25.869Z,22.50
2023-05-10T17:58:12.233Z,22.58
2023-05-10T18:00:57.843Z,22.65
2023-05-10T18:03:42.974Z,23.48
2023-05-10T18:06:28.462Z,26.23
2023-05-10T18:09:13.765Z,26.63
2023-05-10T18:11:59.227Z,25.63
2023-05-10T18:14:44.667Z,28.02
2023-05-10T18:17:29.763Z,29.50
2023-05-10T18:20:15.041Z,26.88
2023-05-10T18:23:00.382Z,29.10
2023-05-10T18:25:45.547Z,26.67
2023-05-10T18:28:30.937Z,27.33
2023-05-10T18:31:16.439Z,28.95
2023-05-10T18:34:02.004Z,28.95
2023-05-10T18:36:47.314Z,27.02
2023-05-10T18:39:32.443Z,25.23
2023-05-10T18:42:17.517Z,26.63
2023-05-10T18:45:03.141Z,26.67
2023-05-10T18:47:48.326Z,25.63
2023-05-10T18:50:33.816Z,26.65
2023-05-10T18:53:19.197Z,25.95
2023-05-10T18:56:04.598Z,26.85
2023-05-10T18:58:49.796Z,27.85
2023-05-10T19:01:34.922Z,27.35
2023-05-10T19:04:20.321Z,27.90
2023-05-10T19:07:05.777Z,28.85
2023-05-10T19:09:51.173Z,30.30
2023-05-10T19:12:36.495Z,30.45
2023-05-10T19:15:22.035Z,30.35
2023-05-10T19:18:09.073Z,32.08
2023-05-10T19:20:54.784Z,30.50
2023-05-10T19:23:40.172Z,29.70
2023-05-10T19:26:24.953Z,29.65
2023-05-10T19:29:09.737Z,31.50
2023-05-10T19:31:55.256Z,30.27
2023-05-10T19:34:40.771Z,32.78
2023-05-10T19:37:25.523Z,31.08
2023-05-10T19:40:12.260Z,31.23
2023-05-10T19:42:57.377Z,30.98
2023-05-10T19:45:43.007Z,28.27
2023-05-10T19:48:29.096Z,28.40
2023-05-10T19:51:16.363Z,26.65
2023-05-10T19:54:01.434Z,26.38
2023-05-10T19:56:46.724Z,26.58
2023-05-10T19:59:32.127Z,24.83
2023-05-10T20:02:17.509Z,25.40
2023-05-10T20:05:02.876Z,27.52
2023-05-10T20:07:48.045Z,31.35
2023-05-10T20:10:33.268Z,30.55
2023-05-10T20:13:18.783Z,29.75
2023-05-10T20:16:04.020Z,31.63
2023-05-10T20:18:49.394Z,32.53
2023-05-10T20:21:34.433Z,32.60
2023-05-10T20:24:19.762Z,38.28
2023-05-10T20:27:05.278Z,35.47
2023-05-10T20:29:50.575Z,35.00
2023-05-10T20:32:36.676Z,32.13
2023-05-10T20:35:21.747Z,33.05
2023-05-10T20:38:07.131Z,33.75
2023-05-10T20:40:52.569Z,35.45
2023-05-10T20:43:37.874Z,31.95
2023-05-10T20:46:23.641Z,33.22
2023-05-10T20:49:09.234Z,34.20
2023-05-10T20:51:55.826Z,33.80
2023-05-10T20:54:41.010Z,34.60
2023-05-10T20:57:26.486Z,34.67
2023-05-10T21:00:12.240Z,34.67
2023-05-10T21:02:57.454Z,36.13
2023-05-10T21:05:42.812Z,37.03
2023-05-10T21:08:28.146Z,37.78
2023-05-10T21:11:13.472Z,38.25
2023-05-10T21:13:59.178Z,40.45
2023-05-10T21:16:44.283Z,40.35
2023-05-10T21:19:29.701Z,40.88
2023-05-10T21:22:15.195Z,40.08
2023-05-10T21:25:00.496Z,38.55
2023-05-10T21:27:45.359Z,44.38
2023-05-10T21:30:32.544Z,41.65
2023-05-10T21:33:17.847Z,40.80
2023-05-10T21:36:03.872Z,42.08
2023-05-10T21:38:49.238Z,41.22
2023-05-10T21:41:34.644Z,43.88
2023-05-10T21:44:19.571Z,44.08
2023-05-10T21:47:05.309Z,48.20
2023-05-10T21:49:50.362Z,49.72
2023-05-10T21:52:36.360Z,45.45
2023-05-10T21:55:21.701Z,48.30
2023-05-10T21:58:06.813Z,44.10
2023-05-10T22:00:52.280Z,43.42
2023-05-10T22:03:37.875Z,43.63
2023-05-10T22:06:23.146Z,42.75
2023-05-10T22:09:08.125Z,39.85
2023-05-10T22:11:53.365Z,39.17
2023-05-10T22:14:38.846Z,41.22
2023-05-10T22:17:24.174Z,42.10
2023-05-10T22:20:09.856Z,39.55
2023-05-10T22:22:55.387Z,39.90
2023-05-10T22:25:40.773Z,43.17
2023-05-10T22:28:26.113Z,43.58
2023-05-10T22:31:12.152Z,43.53
2023-05-10T22:33:57.484Z,41.28
2023-05-10T22:36:43.030Z,39.15
2023-05-10T22:39:28.366Z,44.88
2023-05-10T22:42:13.515Z,41.10
2023-05-10T22:44:58.932Z,41.92
2023-05-10T22:47:44.352Z,42.97
2023-05-10T22:50:30.344Z,42.58
2023-05-10T22:53:15.906Z,42.20
2023-05-10T22:56:01.389Z,41.30
2023-05-10T22:58:46.682Z,42.08
2023-05-10T23:01:32.139Z,40.65
2023-05-10T23:04:17.562Z,43.08
2023-05-10T23:07:02.879Z,44.83
2023-05-10T23:09:48.353Z,40.38
2023-05-10T23:12:33.734Z,40.33
2023-05-10T23:15:19.221Z,39.75
2023-05-10T23:18:04.534Z,43.35
2023-05-10T23:20:49.879Z,42.33
2023-05-10T23:23:34.852Z,38.67
2023-05-10T23:26:20.110Z,39.28
2023-05-10T23:29:05.043Z,38.88
2023-05-10T23:31:50.441Z,37.65
2023-05-10T23:34:36.321Z,39.65
2023-05-10T23:37:21.321Z,39.80
2023-05-10T23:40:07.612Z,40.10
2023-05-10T23:42:53.394Z,39.75
2023-05-10T23:45:38.532Z,39.00
2023-05-10T23:48:24.231Z,36.75
2023-05-10T23:51:09.343Z,37.03
2023-05-10T23:53:54.532Z,38.72
2023-05-10T23:56:39.777Z,35.08
2023-05-10T23:59:25.390Z,35.83
